createdAt,value
2019-04-20T00:00:55.066Z,11.50
2019-04-20T00:03:52.500Z,11.40
2019-04-20T00:06:46.314Z,11.30
2019-04-20T00:09:26.537Z,11.30
2019-04-20T00:12:17.869Z,11.20
2019-04-20T00:14:54.800Z,11.10
2019-04-20T00:17:45.994Z,11.10
2019-04-20T00:20:27.884Z,11.10
2019-04-20T00:23:35.438Z,11.10
2019-04-20T00:27:04.918Z,11.10
2019-04-20T00:29:41.096Z,11.00
2019-04-20T00:32:14.378Z,11.00
2019-04-20T00:34:52.749Z,10.90
2019-04-20T00:37:25.428Z,10.90
2019-04-20T00:40:21.525Z,10.90
2019-04-20T00:43:06.656Z,10.90
2019-04-20T00:45:59.075Z,10.80
2019-04-20T00:48:46.219Z,10.80
2019-04-20T00:51:35.155Z,10.80
2019-04-20T00:54:09.532Z,10.80
2019-04-20T00:57:05.765Z,10.60
2019-04-20T00:59:59.103Z,10.60
2019-04-20T01:02:37.049Z,10.60
2019-04-20T01:08:20.915Z,10.50
2019-04-20T01:11:16.690Z,10.40
2019-04-20T01:14:05.508Z,10.30
2019-04-20T01:16:54.482Z,10.20
2019-04-20T01:19:32.589Z,10.20
2019-04-20T01:22:19.864Z,10.10
2019-04-20T01:25:09.914Z,10.10
2019-04-20T01:28:07.699Z,10.10
2019-04-20T01:30:40.842Z,9.90
2019-04-20T01:33:32.955Z,9.90
2019-04-20T01:36:27.885Z,9.80
2019-04-20T01:39:02.760Z,9.70
2019-04-20T01:44:28.454Z,9.60
2019-04-20T01:47:08.866Z,9.60
2019-04-20T01:49:59.980Z,9.70
2019-04-20T01:52:50.845Z,9.80
2019-04-20T01:55:55.651Z,9.80
2019-04-20T02:02:05.125Z,9.80
2019-04-20T02:05:11.333Z,9.80
2019-04-20T02:07:59.104Z,9.80
2019-04-20T02:10:51.849Z,9.80
2019-04-20T02:13:38.973Z,9.70
2019-04-20T02:16:27.325Z,9.60
2019-04-20T02:19:21.683Z,9.60
2019-04-20T02:22:03.834Z,9.60
2019-04-20T02:24:37.116Z,9.50
2019-04-20T02:27:31.282Z,9.40
2019-04-20T02:30:44.943Z,9.30
2019-04-20T02:33:34.987Z,9.30
2019-04-20T02:39:28.710Z,9.20
2019-04-20T02:42:30.088Z,9.20
2019-04-20T02:45:12.698Z,9.30
2019-04-20T02:47:47.384Z,9.30
2019-04-20T02:53:21.969Z,9.30
2019-04-20T02:56:04.862Z,9.30
2019-04-20T02:59:15.132Z,9.30
2019-04-20T03:01:55.208Z,9.20
2019-04-20T03:04:29.459Z,9.00
2019-04-20T03:07:14.949Z,9.00
2019-04-20T03:10:06.549Z,9.00
2019-04-20T03:12:59.734Z,9.00
2019-04-20T03:15:42.128Z,9.00
2019-04-20T03:18:25.547Z,9.00
2019-04-20T03:21:12.862Z,8.90
2019-04-20T03:24:06.370Z,8.90
2019-04-20T03:26:59.832Z,8.80
2019-04-20T03:33:24.535Z,8.70
2019-04-20T03:36:09.941Z,8.70
2019-04-20T03:38:45.125Z,8.70
2019-04-20T03:41:19.486Z,8.70
2019-04-20T03:49:52.545Z,8.90
2019-04-20T03:52:57.841Z,8.80
2019-04-20T03:56:02.306Z,8.70
2019-04-20T04:08:06.209Z,8.50
2019-04-20T04:11:03.287Z,8.40
2019-04-20T04:13:29.117Z,8.40
2019-04-20T04:16:15.538Z,8.40
2019-04-20T04:19:09.048Z,8.50
2019-04-20T04:21:59.141Z,8.50
2019-04-20T04:24:39.358Z,8.50
2019-04-20T04:27:38.691Z,8.50
2019-04-20T04:30:14.913Z,8.50
2019-04-20T04:33:32.637Z,8.50
2019-04-20T04:35:54.623Z,8.40
2019-04-20T04:38:42.356Z,8.40
2019-04-20T04:41:26.560Z,8.40
2019-04-20T04:44:08.661Z,8.20
2019-04-20T04:46:43.520Z,8.30
2019-04-20T04:49:31.111Z,8.40
2019-04-20T04:52:14.404Z,8.30
2019-04-20T04:55:09.564Z,8.40
2019-04-20T04:57:41.654Z,8.40
2019-04-20T05:00:28.157Z,8.40
2019-04-20T05:03:28.489Z,8.40
2019-04-20T05:06:32.051Z,8.50
2019-04-20T05:09:14.919Z,8.60
2019-04-20T05:12:04.147Z,8.70
2019-04-20T05:14:53.674Z,8.80
2019-04-20T05:17:54.456Z,8.80
2019-04-20T05:20:38.672Z,8.80
2019-04-20T05:23:37.867Z,8.80
2019-04-20T05:29:34.534Z,9.10
2019-04-20T05:32:24.915Z,9.20
2019-04-20T05:35:35.443Z,9.30
2019-04-20T05:38:20.392Z,9.50
2019-04-20T05:40:55.552Z,9.50
2019-04-20T05:46:42.540Z,9.70
2019-04-20T05:49:29.746Z,9.80
2019-04-20T05:52:31.554Z,10.00
2019-04-20T05:55:03.009Z,10.10
2019-04-20T05:57:50.436Z,10.30
2019-04-20T06:00:43.563Z,10.40
2019-04-20T06:03:20.363Z,10.60
2019-04-20T06:06:23.472Z,10.80
2019-04-20T06:09:03.378Z,10.90
2019-04-20T06:11:44.473Z,11.10
2019-04-20T06:17:31.388Z,11.50
2019-04-20T06:20:20.285Z,11.70
2019-04-20T06:26:11.217Z,11.60
2019-04-20T06:28:46.494Z,11.80
2019-04-20T06:31:40.970Z,12.00
2019-04-20T06:34:37.964Z,12.10
2019-04-20T06:37:23.467Z,12.40
2019-04-20T06:40:07.817Z,12.60
2019-04-20T06:42:58.845Z,12.80
2019-04-20T06:45:54.846Z,13.00
2019-04-20T06:48:35.321Z,13.00
2019-04-20T06:57:07.106Z,13.50
2019-04-20T06:59:54.459Z,13.80
2019-04-20T07:02:41.766Z,14.00
2019-04-20T07:08:30.902Z,14.30
2019-04-20T07:10:59.326Z,14.40
2019-04-20T07:13:33.104Z,14.60
2019-04-20T07:16:49.333Z,14.80
2019-04-20T07:19:50.452Z,15.00
2019-04-20T07:22:55.962Z,15.30
2019-04-20T07:26:09.570Z,15.60
2019-04-20T07:28:35.563Z,15.70
2019-04-20T07:31:18.633Z,15.90
2019-04-20T07:37:04.618Z,16.30
2019-04-20T07:39:40.297Z,16.60
2019-04-20T07:42:29.070Z,16.60
2019-04-20T07:45:18.212Z,16.80
2019-04-20T07:47:52.461Z,16.90
2019-04-20T07:50:36.136Z,17.00
2019-04-20T07:53:20.211Z,17.00
2019-04-20T07:56:12.132Z,17.20
2019-04-20T07:58:46.061Z,17.30
2019-04-20T08:05:05.993Z,17.60
2019-04-20T08:07:46.410Z,18.00
2019-04-20T08:10:42.122Z,18.10
2019-04-20T08:13:43.614Z,18.00
2019-04-20T08:16:14.284Z,18.00
2019-04-20T08:19:01.137Z,17.50
2019-04-20T08:21:47.543Z,17.30
2019-04-20T08:24:27.772Z,17.70
2019-04-20T08:29:58.923Z,18.40
2019-04-20T08:36:10.712Z,19.00
2019-04-20T08:41:57.557Z,18.70
2019-04-20T08:47:51.979Z,18.80
2019-04-20T08:50:28.115Z,18.60
2019-04-20T08:53:15.914Z,19.10
2019-04-20T08:55:57.001Z,18.90
2019-04-20T08:58:28.455Z,19.30
2019-04-20T09:01:18.424Z,19.50
2019-04-20T09:04:09.049Z,19.70
2019-04-20T09:06:59.714Z,20.00
2019-04-20T09:09:53.809Z,20.40
2019-04-20T09:12:35.711Z,20.60
2019-04-20T09:15:04.260Z,20.60
2019-04-20T09:18:20.614Z,20.20
2019-04-20T09:21:15.462Z,20.20
2019-04-20T09:24:17.160Z,20.40
2019-04-20T09:26:54.579Z,20.40
2019-04-20T09:29:32.902Z,20.20
2019-04-20T09:32:30.982Z,20.50
2019-04-20T09:35:24.862Z,20.70
2019-04-20T09:38:10.386Z,21.00
2019-04-20T09:40:55.484Z,21.10
2019-04-20T09:43:47.381Z,21.00
2019-04-20T09:46:37.787Z,21.00
2019-04-20T09:49:32.395Z,21.30
2019-04-20T09:52:16.986Z,21.50
2019-04-20T09:55:04.295Z,21.30
2019-04-20T09:57:55.992Z,21.70
2019-04-20T10:00:41.174Z,21.50
2019-04-20T10:03:08.682Z,21.40
2019-04-20T10:05:53.775Z,21.80
2019-04-20T10:08:44.725Z,21.40
2019-04-20T10:11:11.922Z,21.40
2019-04-20T10:13:56.469Z,21.50
2019-04-20T10:16:42.004Z,21.70
2019-04-20T10:22:10.959Z,22.00
2019-04-20T10:24:55.541Z,22.10
2019-04-20T10:27:42.061Z,21.70
2019-04-20T10:30:26.611Z,21.60
2019-04-20T10:33:10.505Z,22.20
2019-04-20T10:35:54.896Z,22.20
2019-04-20T10:38:40.153Z,22.40
2019-04-20T10:42:20.414Z,22.50
2019-04-20T10:44:29.295Z,22.00
2019-04-20T10:47:17.166Z,22.20
2019-04-20T10:50:00.980Z,21.90
2019-04-20T10:52:46.159Z,22.00
2019-04-20T10:55:31.323Z,22.10
2019-04-20T10:58:03.847Z,22.30
2019-04-20T11:00:50.090Z,22.40
2019-04-20T11:03:22.787Z,22.60
2019-04-20T11:06:20.594Z,22.10
2019-04-20T11:09:06.846Z,22.20
2019-04-20T11:11:50.826Z,22.50
2019-04-20T11:14:38.761Z,22.10
2019-04-20T11:17:22.409Z,22.30
2019-04-20T11:20:07.447Z,22.20
2019-04-20T11:22:52.576Z,22.30
2019-04-20T11:25:38.005Z,22.50
2019-04-20T11:28:22.518Z,22.60
2019-04-20T11:36:34.995Z,22.80
2019-04-20T11:39:19.192Z,22.40
2019-04-20T11:42:03.733Z,22.20
2019-04-20T11:44:48.839Z,22.00
2019-04-20T11:47:33.671Z,22.20
2019-04-20T11:50:19.727Z,22.20
2019-04-20T11:53:03.765Z,22.30
2019-04-20T11:55:48.820Z,22.10
2019-04-20T11:58:33.160Z,21.90
2019-04-20T12:01:43.999Z,21.90
2019-04-20T12:07:28.710Z,21.80
2019-04-20T12:10:17.344Z,21.70
2019-04-20T12:12:59.626Z,21.70
2019-04-20T12:15:43.644Z,21.60
2019-04-20T12:18:27.598Z,21.40
2019-04-20T12:21:12.716Z,21.60
2019-04-20T12:23:56.731Z,21.70
2019-04-20T12:26:41.099Z,21.80
2019-04-20T12:29:25.831Z,21.40
2019-04-20T12:32:10.736Z,21.70
2019-04-20T12:34:56.144Z,21.50
2019-04-20T12:37:40.991Z,21.10
2019-04-20T12:40:25.888Z,21.30
2019-04-20T12:43:11.104Z,20.90
2019-04-20T12:45:55.875Z,20.80
2019-04-20T12:48:40.193Z,20.50
2019-04-20T12:51:31.456Z,20.60
2019-04-20T12:54:10.873Z,20.70
2019-04-20T12:56:55.103Z,20.40
2019-04-20T12:59:42.725Z,20.30
2019-04-20T13:02:27.182Z,20.40
2019-04-20T13:05:13.448Z,20.50
2019-04-20T13:08:04.126Z,20.30
2019-04-20T13:11:04.472Z,20.40
2019-04-20T13:14:32.882Z,20.30
2019-04-20T13:17:06.252Z,20.40
2019-04-20T13:19:51.238Z,20.40
2019-04-20T13:22:36.811Z,20.30
2019-04-20T13:25:25.090Z,20.20
2019-04-20T13:28:10.682Z,20.10
2019-04-20T13:30:55.578Z,20.10
2019-04-20T13:33:43.326Z,19.90
2019-04-20T13:36:28.700Z,20.10
2019-04-20T13:39:12.804Z,20.50
2019-04-20T13:42:11.501Z,20.50
2019-04-20T13:44:59.125Z,20.30
2019-04-20T13:47:43.359Z,20.30
2019-04-20T13:50:31.714Z,20.10
2019-04-20T13:53:17.092Z,19.90
2019-04-20T13:56:01.638Z,20.10
2019-04-20T13:59:12.074Z,20.20
2019-04-20T14:05:04.710Z,19.80
2019-04-20T14:07:49.366Z,19.70
2019-04-20T14:10:33.783Z,19.60
2019-04-20T14:13:20.474Z,19.70
2019-04-20T14:16:04.997Z,19.60
2019-04-20T14:18:49.217Z,19.50
2019-04-20T14:21:34.215Z,19.40
2019-04-20T14:24:19.144Z,19.40
2019-04-20T14:27:03.391Z,19.40
2019-04-20T14:29:51.125Z,19.40
2019-04-20T14:32:34.776Z,19.40
2019-04-20T14:35:18.938Z,19.50
2019-04-20T14:38:05.860Z,19.50
2019-04-20T14:40:50.382Z,19.40
2019-04-20T14:43:36.497Z,19.30
2019-04-20T14:46:21.080Z,19.10
2019-04-20T14:49:05.026Z,19.10
2019-04-20T14:51:49.944Z,19.00
2019-04-20T14:54:35.109Z,19.10
2019-04-20T14:57:19.572Z,19.20
2019-04-20T15:03:25.942Z,19.10
2019-04-20T15:06:11.644Z,19.00
2019-04-20T15:08:58.831Z,19.00
2019-04-20T15:11:46.568Z,19.00
2019-04-20T15:14:32.370Z,19.00
2019-04-20T15:20:39.511Z,18.90
2019-04-20T15:23:25.777Z,19.00
2019-04-20T15:26:10.732Z,19.00
2019-04-20T15:28:59.928Z,19.00
2019-04-20T15:31:56.581Z,18.90
2019-04-20T15:34:40.805Z,18.80
2019-04-20T15:37:25.148Z,18.80
2019-04-20T15:40:11.159Z,18.80
2019-04-20T15:43:04.331Z,18.90
2019-04-20T15:45:45.390Z,18.80
2019-04-20T15:48:37.644Z,18.70
2019-04-20T15:51:23.641Z,18.70
2019-04-20T15:54:09.383Z,18.70
2019-04-20T16:00:02.542Z,18.60
2019-04-20T16:08:54.346Z,18.50
2019-04-20T16:11:39.224Z,18.50
2019-04-20T16:14:23.871Z,18.50
2019-04-20T16:17:12.504Z,18.50
2019-04-20T16:20:06.277Z,18.50
2019-04-20T16:22:42.669Z,18.40
2019-04-20T16:28:32.100Z,18.30
2019-04-20T16:31:30.858Z,18.40
2019-04-20T16:34:15.970Z,18.40
2019-04-20T16:36:59.928Z,18.30
2019-04-20T16:39:46.493Z,18.30
2019-04-20T16:42:32.089Z,18.20
2019-04-20T16:45:17.175Z,18.20
2019-04-20T16:48:03.854Z,18.20
2019-04-20T16:50:48.862Z,18.10
2019-04-20T16:53:32.977Z,18.10
2019-04-20T16:56:19.450Z,18.00
2019-04-20T16:59:07.115Z,18.00
2019-04-20T17:01:50.622Z,18.00
2019-04-20T17:04:35.610Z,17.90
2019-04-20T17:07:45.392Z,17.80
2019-04-20T17:10:29.087Z,17.80
2019-04-20T17:13:13.593Z,17.80
2019-04-20T17:15:57.532Z,17.70
2019-04-20T17:18:41.660Z,17.70
2019-04-20T17:21:28.945Z,17.60
2019-04-20T17:24:13.359Z,17.60
2019-04-20T17:30:27.847Z,17.40
2019-04-20T17:33:15.883Z,17.40
2019-04-20T17:36:08.890Z,17.30
2019-04-20T17:38:52.651Z,17.30
2019-04-20T17:41:48.793Z,17.20
2019-04-20T17:44:31.515Z,17.20
2019-04-20T17:47:21.475Z,17.10
2019-04-20T17:50:03.601Z,17.10
2019-04-20T17:52:53.906Z,17.10
2019-04-20T17:58:32.648Z,16.90
2019-04-20T18:01:48.736Z,16.90
2019-04-20T18:04:53.822Z,16.70
2019-04-20T18:08:02.606Z,16.70
2019-04-20T18:10:25.996Z,16.70
2019-04-20T18:12:56.754Z,16.60
2019-04-20T18:15:52.647Z,16.50
2019-04-20T18:18:56.219Z,16.40
2019-04-20T18:24:56.852Z,16.30
2019-04-20T18:27:38.767Z,16.30
2019-04-20T18:33:09.521Z,16.10
2019-04-20T18:35:58.327Z,16.00
2019-04-20T18:39:04.244Z,16.00
2019-04-20T18:41:51.481Z,15.90
2019-04-20T18:44:55.839Z,15.90
2019-04-20T18:47:34.356Z,15.80
2019-04-20T18:50:11.835Z,15.80
2019-04-20T18:52:49.694Z,15.70
2019-04-20T18:55:46.183Z,15.70
2019-04-20T18:58:27.050Z,15.60
2019-04-20T19:01:32.064Z,15.50
2019-04-20T19:03:59.701Z,15.40
2019-04-20T19:06:57.452Z,15.40
2019-04-20T19:09:43.211Z,15.30
2019-04-20T19:12:41.441Z,15.30
2019-04-20T19:16:03.605Z,15.20
2019-04-20T19:21:43.775Z,15.10
2019-04-20T19:24:32.743Z,15.00
2019-04-20T19:27:17.035Z,14.90
2019-04-20T19:33:05.287Z,14.80
2019-04-20T19:35:46.570Z,14.80
2019-04-20T19:38:24.474Z,14.70
2019-04-20T19:41:23.382Z,14.70
2019-04-20T19:44:04.080Z,14.70
2019-04-20T19:47:05.400Z,14.60
2019-04-20T19:49:36.000Z,14.60
2019-04-20T19:52:39.628Z,14.50
2019-04-20T19:55:27.451Z,14.40
2019-04-20T19:58:11.494Z,14.30
2019-04-20T20:00:46.835Z,14.30
2019-04-20T20:03:29.978Z,14.20
2019-04-20T20:06:22.501Z,14.20
2019-04-20T20:09:04.234Z,14.10
2019-04-20T20:11:56.113Z,14.10
2019-04-20T20:14:44.800Z,14.00
2019-04-20T20:17:44.422Z,14.00
2019-04-20T20:20:35.810Z,13.90
2019-04-20T20:23:00.094Z,13.90
2019-04-20T20:25:47.548Z,13.80
2019-04-20T20:28:39.602Z,13.70
2019-04-20T20:31:27.522Z,13.70
2019-04-20T20:34:10.929Z,13.60
2019-04-20T20:36:54.958Z,13.50
2019-04-20T20:39:36.399Z,13.50
2019-04-20T20:42:29.580Z,13.50
2019-04-20T20:45:16.043Z,13.50
2019-04-20T20:48:12.094Z,13.40
2019-04-20T20:51:02.184Z,13.30
2019-04-20T20:53:41.704Z,13.30
2019-04-20T20:56:19.213Z,13.20
2019-04-20T20:59:03.972Z,13.20
2019-04-20T21:01:52.419Z,13.10
2019-04-20T21:04:29.999Z,13.00
2019-04-20T21:07:13.989Z,12.90
2019-04-20T21:09:58.773Z,12.80
2019-04-20T21:12:50.970Z,12.70
2019-04-20T21:15:30.255Z,12.70
2019-04-20T21:18:33.552Z,12.70
2019-04-20T21:21:16.894Z,12.60
2019-04-20T21:23:58.148Z,12.60
2019-04-20T21:26:37.616Z,12.50
2019-04-20T21:29:31.771Z,12.40
2019-04-20T21:32:10.901Z,12.40
2019-04-20T21:34:58.456Z,12.40
2019-04-20T21:37:43.419Z,12.30
2019-04-20T21:40:32.414Z,12.30
2019-04-20T21:43:11.323Z,12.20
2019-04-20T21:46:01.290Z,12.10
2019-04-20T21:48:56.044Z,12.00
2019-04-20T21:51:38.354Z,12.00
2019-04-20T21:54:14.105Z,11.90
2019-04-20T21:57:03.084Z,11.90
2019-04-20T21:59:48.718Z,11.90
2019-04-20T22:02:37.696Z,11.80
2019-04-20T22:05:16.036Z,11.80
2019-04-20T22:08:03.316Z,11.80
2019-04-20T22:10:45.425Z,11.70
2019-04-20T22:13:36.394Z,11.70
2019-04-20T22:16:17.132Z,11.70
2019-04-20T22:19:16.014Z,11.60
2019-04-20T22:22:00.623Z,11.60
2019-04-20T22:24:49.021Z,11.50
2019-04-20T22:27:22.417Z,11.50
2019-04-20T22:32:50.343Z,11.40
2019-04-20T22:35:36.027Z,11.30
2019-04-20T22:38:24.740Z,11.30
2019-04-20T22:41:23.192Z,11.30
2019-04-20T22:44:12.290Z,11.20
2019-04-20T22:46:42.744Z,11.20
2019-04-20T22:49:50.058Z,11.20
2019-04-20T22:52:37.006Z,11.10
2019-04-20T22:55:36.625Z,11.10
2019-04-20T22:58:00.969Z,11.10
2019-04-20T23:00:49.062Z,11.00
2019-04-20T23:03:25.019Z,11.00
2019-04-20T23:06:09.058Z,11.00
2019-04-20T23:08:58.559Z,10.90
2019-04-20T23:11:40.405Z,10.80
2019-04-20T23:14:24.704Z,10.80
2019-04-20T23:17:10.292Z,10.80
2019-04-20T23:19:58.195Z,10.80
2019-04-20T23:22:43.958Z,10.70
2019-04-20T23:25:27.044Z,10.60
2019-04-20T23:28:14.755Z,10.60
2019-04-20T23:31:02.509Z,10.60
2019-04-20T23:33:43.604Z,10.50
2019-04-20T23:36:36.529Z,10.50
2019-04-20T23:42:02.469Z,10.50
2019-04-20T23:47:57.759Z,10.40
2019-04-20T23:51:07.948Z,10.40
2019-04-20T23:53:46.701Z,10.30
2019-04-20T23:56:20.402Z,10.20
2019-04-20T23:59:04.704Z,10.10
